sensor_id;sensor_type;location;lat;lon;timestamp;P1;P2;P0
47741;PMS5003;33504;52.066;6.096;2023-06-10T00:01:21;27;25;
47741;PMS5003;33504;52.066;6.096;2023-06-10T00:03:48;28;27;
47741;PMS5003;33504;52.066;6.096;2023-06-10T00:06:16;30;29;
47741;PMS5003;33504;52.066;6.096;2023-06-10T00:08:43;29;28;
47741;PMS5003;33504;52.066;6.096;2023-06-10T00:11:10;34;33;
47741;PMS5003;33504;52.066;6.096;2023-06-10T00:13:37;28;26;
47741;PMS5003;33504;52.066;6.096;2023-06-10T00:16:05;29;29;
47741;PMS5003;33504;52.066;6.096;2023-06-10T00:18:32;30;30;
47741;PMS5003;33504;52.066;6.096;2023-06-10T00:20:59;31;30;
47741;PMS5003;33504;52.066;6.096;2023-06-10T00:23:26;26;26;
47741;PMS5003;33504;52.066;6.096;2023-06-10T00:25:52;25;25;
47741;PMS5003;33504;52.066;6.096;2023-06-10T00:28:19;22;22;
47741;PMS5003;33504;52.066;6.096;2023-06-10T00:30:46;24;24;
47741;PMS5003;33504;52.066;6.096;2023-06-10T00:33:13;30;29;
47741;PMS5003;33504;52.066;6.096;2023-06-10T00:35:40;26;25;
47741;PMS5003;33504;52.066;6.096;2023-06-10T00:38:07;31;29;
47741;PMS5003;33504;52.066;6.096;2023-06-10T00:40:38;38;37;
47741;PMS5003;33504;52.066;6.096;2023-06-10T00:43:06;30;29;
47741;PMS5003;33504;52.066;6.096;2023-06-10T00:45:33;62;61;
47741;PMS5003;33504;52.066;6.096;2023-06-10T00:48:01;36;34;
47741;PMS5003;33504;52.066;6.096;2023-06-10T00:50:29;30;29;
47741;PMS5003;33504;52.066;6.096;2023-06-10T00:52:57;52;51;
47741;PMS5003;33504;52.066;6.096;2023-06-10T00:55:26;36;35;
47741;PMS5003;33504;52.066;6.096;2023-06-10T00:57:53;72;72;
47741;PMS5003;33504;52.066;6.096;2023-06-10T01:00:21;33;32;
47741;PMS5003;33504;52.066;6.096;2023-06-10T01:02:48;27;27;
47741;PMS5003;33504;52.066;6.096;2023-06-10T01:05:15;35;35;
47741;PMS5003;33504;52.066;6.096;2023-06-10T01:07:43;42;42;
47741;PMS5003;33504;52.066;6.096;2023-06-10T01:10:18;32;31;
47741;PMS5003;33504;52.066;6.096;2023-06-10T01:12:52;29;28;
47741;PMS5003;33504;52.066;6.096;2023-06-10T01:15:25;63;62;
47741;PMS5003;33504;52.066;6.096;2023-06-10T01:17:53;32;31;
47741;PMS5003;33504;52.066;6.096;2023-06-10T01:20:21;32;32;
47741;PMS5003;33504;52.066;6.096;2023-06-10T01:22:48;35;35;
47741;PMS5003;33504;52.066;6.096;2023-06-10T01:25:15;37;36;
47741;PMS5003;33504;52.066;6.096;2023-06-10T01:27:42;38;37;
47741;PMS5003;33504;52.066;6.096;2023-06-10T01:30:14;56;54;
47741;PMS5003;33504;52.066;6.096;2023-06-10T01:32:45;31;31;
47741;PMS5003;33504;52.066;6.096;2023-06-10T01:35:14;51;51;
47741;PMS5003;33504;52.066;6.096;2023-06-10T01:37:45;38;37;
47741;PMS5003;33504;52.066;6.096;2023-06-10T01:40:13;39;39;
47741;PMS5003;33504;52.066;6.096;2023-06-10T01:42:41;47;46;
47741;PMS5003;33504;52.066;6.096;2023-06-10T01:45:09;26;26;
47741;PMS5003;33504;52.066;6.096;2023-06-10T01:47:36;44;44;
47741;PMS5003;33504;52.066;6.096;2023-06-10T01:50:04;60;60;
47741;PMS5003;33504;52.066;6.096;2023-06-10T01:52:32;54;54;
47741;PMS5003;33504;52.066;6.096;2023-06-10T01:54:59;53;53;
47741;PMS5003;33504;52.066;6.096;2023-06-10T01:57:26;67;65;
47741;PMS5003;33504;52.066;6.096;2023-06-10T01:59:54;84;84;
47741;PMS5003;33504;52.066;6.096;2023-06-10T02:02:21;94;94;
47741;PMS5003;33504;52.066;6.096;2023-06-10T02:04:49;102;101;
47741;PMS5003;33504;52.066;6.096;2023-06-10T02:07:16;82;81;
47741;PMS5003;33504;52.066;6.096;2023-06-10T02:09:44;54;54;
47741;PMS5003;33504;52.066;6.096;2023-06-10T02:12:11;32;32;
47741;PMS5003;33504;52.066;6.096;2023-06-10T02:14:38;21;20;
47741;PMS5003;33504;52.066;6.096;2023-06-10T02:17:05;23;22;
47741;PMS5003;33504;52.066;6.096;2023-06-10T02:19:33;20;19;
47741;PMS5003;33504;52.066;6.096;2023-06-10T02:21:59;23;22;
47741;PMS5003;33504;52.066;6.096;2023-06-10T02:24:27;23;23;
47741;PMS5003;33504;52.066;6.096;2023-06-10T02:26:54;23;23;
47741;PMS5003;33504;52.066;6.096;2023-06-10T02:29:21;22;21;
47741;PMS5003;33504;52.066;6.096;2023-06-10T02:31:48;26;25;
47741;PMS5003;33504;52.066;6.096;2023-06-10T02:34:14;18;18;
47741;PMS5003;33504;52.066;6.096;2023-06-10T02:36:41;20;20;
47741;PMS5003;33504;52.066;6.096;2023-06-10T02:39:08;20;18;
47741;PMS5003;33504;52.066;6.096;2023-06-10T02:41:35;18;18;
47741;PMS5003;33504;52.066;6.096;2023-06-10T02:44:01;20;20;
47741;PMS5003;33504;52.066;6.096;2023-06-10T02:46:29;20;19;
47741;PMS5003;33504;52.066;6.096;2023-06-10T02:48:56;18;18;
47741;PMS5003;33504;52.066;6.096;2023-06-10T02:51:23;21;21;
47741;PMS5003;33504;52.066;6.096;2023-06-10T02:53:49;20;19;
47741;PMS5003;33504;52.066;6.096;2023-06-10T02:56:16;20;19;
47741;PMS5003;33504;52.066;6.096;2023-06-10T02:58:44;22;21;
47741;PMS5003;33504;52.066;6.096;2023-06-10T03:01:11;21;21;
47741;PMS5003;33504;52.066;6.096;2023-06-10T03:03:39;20;20;
47741;PMS5003;33504;52.066;6.096;2023-06-10T03:06:06;22;21;
47741;PMS5003;33504;52.066;6.096;2023-06-10T03:08:33;24;23;
47741;PMS5003;33504;52.066;6.096;2023-06-10T03:10:59;22;21;
47741;PMS5003;33504;52.066;6.096;2023-06-10T03:13:26;22;21;
47741;PMS5003;33504;52.066;6.096;2023-06-10T03:15:53;21;21;
47741;PMS5003;33504;52.066;6.096;2023-06-10T03:18:20;21;21;
47741;PMS5003;33504;52.066;6.096;2023-06-10T03:20:46;24;24;
47741;PMS5003;33504;52.066;6.096;2023-06-10T03:23:13;25;24;
47741;PMS5003;33504;52.066;6.096;2023-06-10T03:25:40;23;22;
47741;PMS5003;33504;52.066;6.096;2023-06-10T03:28:07;22;21;
47741;PMS5003;33504;52.066;6.096;2023-06-10T03:30:34;19;19;
47741;PMS5003;33504;52.066;6.096;2023-06-10T03:33:01;22;22;
47741;PMS5003;33504;52.066;6.096;2023-06-10T03:35:29;23;22;
47741;PMS5003;33504;52.066;6.096;2023-06-10T03:37:56;23;23;
47741;PMS5003;33504;52.066;6.096;2023-06-10T03:40:23;24;23;
47741;PMS5003;33504;52.066;6.096;2023-06-10T03:42:51;24;24;
47741;PMS5003;33504;52.066;6.096;2023-06-10T03:45:18;22;22;
47741;PMS5003;33504;52.066;6.096;2023-06-10T03:47:44;27;27;
47741;PMS5003;33504;52.066;6.096;2023-06-10T03:50:11;31;30;
47741;PMS5003;33504;52.066;6.096;2023-06-10T03:52:38;22;21;
47741;PMS5003;33504;52.066;6.096;2023-06-10T03:55:06;28;27;
47741;PMS5003;33504;52.066;6.096;2023-06-10T03:57:34;35;35;
47741;PMS5003;33504;52.066;6.096;2023-06-10T04:00:01;24;23;
47741;PMS5003;33504;52.066;6.096;2023-06-10T04:02:28;28;28;
47741;PMS5003;33504;52.066;6.096;2023-06-10T04:04:55;61;61;
47741;PMS5003;33504;52.066;6.096;2023-06-10T04:07:22;23;23;
47741;PMS5003;33504;52.066;6.096;2023-06-10T04:09:49;28;27;
47741;PMS5003;33504;52.066;6.096;2023-06-10T04:12:16;35;35;
47741;PMS5003;33504;52.066;6.096;2023-06-10T04:14:43;23;23;
47741;PMS5003;33504;52.066;6.096;2023-06-10T04:17:10;19;19;
47741;PMS5003;33504;52.066;6.096;2023-06-10T04:19:37;28;27;
47741;PMS5003;33504;52.066;6.096;2023-06-10T04:22:04;47;47;
47741;PMS5003;33504;52.066;6.096;2023-06-10T04:24:31;59;58;
47741;PMS5003;33504;52.066;6.096;2023-06-10T04:26:58;27;26;
47741;PMS5003;33504;52.066;6.096;2023-06-10T04:29:25;52;52;
47741;PMS5003;33504;52.066;6.096;2023-06-10T04:31:52;43;43;
47741;PMS5003;33504;52.066;6.096;2023-06-10T04:34:20;43;42;
47741;PMS5003;33504;52.066;6.096;2023-06-10T04:36:47;36;36;
47741;PMS5003;33504;52.066;6.096;2023-06-10T04:39:14;24;23;
47741;PMS5003;33504;52.066;6.096;2023-06-10T04:41:41;29;28;
47741;PMS5003;33504;52.066;6.096;2023-06-10T04:44:08;33;33;
47741;PMS5003;33504;52.066;6.096;2023-06-10T04:46:35;25;24;
47741;PMS5003;33504;52.066;6.096;2023-06-10T04:49:02;30;29;
47741;PMS5003;33504;52.066;6.096;2023-06-10T04:51:29;28;28;
47741;PMS5003;33504;52.066;6.096;2023-06-10T04:53:55;28;26;
47741;PMS5003;33504;52.066;6.096;2023-06-10T04:56:22;24;24;
47741;PMS5003;33504;52.066;6.096;2023-06-10T04:58:49;25;22;
47741;PMS5003;33504;52.066;6.096;2023-06-10T05:01:16;19;19;
47741;PMS5003;33504;52.066;6.096;2023-06-10T05:03:42;16;15;
47741;PMS5003;33504;52.066;6.096;2023-06-10T05:06:09;15;15;
47741;PMS5003;33504;52.066;6.096;2023-06-10T05:08:37;15;13;
47741;PMS5003;33504;52.066;6.096;2023-06-10T05:11:03;13;13;
47741;PMS5003;33504;52.066;6.096;2023-06-10T05:13:30;17;16;
47741;PMS5003;33504;52.066;6.096;2023-06-10T05:15:58;17;16;
47741;PMS5003;33504;52.066;6.096;2023-06-10T05:18:25;17;17;
47741;PMS5003;33504;52.066;6.096;2023-06-10T05:20:52;20;20;
47741;PMS5003;33504;52.066;6.096;2023-06-10T05:23:19;14;14;
47741;PMS5003;33504;52.066;6.096;2023-06-10T05:25:46;12;12;
47741;PMS5003;33504;52.066;6.096;2023-06-10T05:28:13;20;19;
47741;PMS5003;33504;52.066;6.096;2023-06-10T05:30:40;16;15;
47741;PMS5003;33504;52.066;6.096;2023-06-10T05:33:07;17;15;
47741;PMS5003;33504;52.066;6.096;2023-06-10T05:35:34;15;15;
47741;PMS5003;33504;52.066;6.096;2023-06-10T05:38:02;15;14;
47741;PMS5003;33504;52.066;6.096;2023-06-10T05:40:29;18;16;
47741;PMS5003;33504;52.066;6.096;2023-06-10T05:42:55;16;15;
47741;PMS5003;33504;52.066;6.096;2023-06-10T05:45:22;14;13;
47741;PMS5003;33504;52.066;6.096;2023-06-10T05:47:50;15;14;
47741;PMS5003;33504;52.066;6.096;2023-06-10T05:50:16;13;13;
47741;PMS5003;33504;52.066;6.096;2023-06-10T05:52:43;17;16;
47741;PMS5003;33504;52.066;6.096;2023-06-10T05:55:10;15;15;
47741;PMS5003;33504;52.066;6.096;2023-06-10T05:57:37;15;14;
47741;PMS5003;33504;52.066;6.096;2023-06-10T06:00:04;17;17;
47741;PMS5003;33504;52.066;6.096;2023-06-10T06:02:32;19;18;
47741;PMS5003;33504;52.066;6.096;2023-06-10T06:05:00;14;14;
47741;PMS5003;33504;52.066;6.096;2023-06-10T06:07:26;14;13;
47741;PMS5003;33504;52.066;6.096;2023-06-10T06:09:54;20;18;
47741;PMS5003;33504;52.066;6.096;2023-06-10T06:12:20;15;14;
47741;PMS5003;33504;52.066;6.096;2023-06-10T06:14:47;18;17;
47741;PMS5003;33504;52.066;6.096;2023-06-10T06:17:14;14;14;
47741;PMS5003;33504;52.066;6.096;2023-06-10T06:19:41;19;16;
47741;PMS5003;33504;52.066;6.096;2023-06-10T06:22:07;17;16;
47741;PMS5003;33504;52.066;6.096;2023-06-10T06:24:34;17;17;
47741;PMS5003;33504;52.066;6.096;2023-06-10T06:27:01;19;19;
47741;PMS5003;33504;52.066;6.096;2023-06-10T06:29:29;16;16;
47741;PMS5003;33504;52.066;6.096;2023-06-10T06:31:55;35;35;
47741;PMS5003;33504;52.066;6.096;2023-06-10T06:34:22;16;15;
47741;PMS5003;33504;52.066;6.096;2023-06-10T06:36:49;39;37;
47741;PMS5003;33504;52.066;6.096;2023-06-10T06:39:16;16;16;
47741;PMS5003;33504;52.066;6.096;2023-06-10T06:41:43;21;21;
47741;PMS5003;33504;52.066;6.096;2023-06-10T06:44:10;21;21;
47741;PMS5003;33504;52.066;6.096;2023-06-10T06:46:37;19;19;
47741;PMS5003;33504;52.066;6.096;2023-06-10T06:49:05;19;19;
47741;PMS5003;33504;52.066;6.096;2023-06-10T06:51:31;14;14;
47741;PMS5003;33504;52.066;6.096;2023-06-10T06:53:59;21;21;
47741;PMS5003;33504;52.066;6.096;2023-06-10T06:56:26;15;14;
47741;PMS5003;33504;52.066;6.096;2023-06-10T06:58:53;16;15;
47741;PMS5003;33504;52.066;6.096;2023-06-10T07:01:20;16;16;
47741;PMS5003;33504;52.066;6.096;2023-06-10T07:03:47;18;16;
47741;PMS5003;33504;52.066;6.096;2023-06-10T07:06:15;14;14;
47741;PMS5003;33504;52.066;6.096;2023-06-10T07:08:42;13;12;
47741;PMS5003;33504;52.066;6.096;2023-06-10T07:11:09;17;17;
47741;PMS5003;33504;52.066;6.096;2023-06-10T07:13:37;13;12;
47741;PMS5003;33504;52.066;6.096;2023-06-10T07:16:04;14;14;
47741;PMS5003;33504;52.066;6.096;2023-06-10T07:18:31;13;13;
47741;PMS5003;33504;52.066;6.096;2023-06-10T07:20:59;14;13;
47741;PMS5003;33504;52.066;6.096;2023-06-10T07:23:26;14;14;
47741;PMS5003;33504;52.066;6.096;2023-06-10T07:25:54;13;12;
47741;PMS5003;33504;52.066;6.096;2023-06-10T07:28:21;14;13;
47741;PMS5003;33504;52.066;6.096;2023-06-10T07:30:48;11;11;
47741;PMS5003;33504;52.066;6.096;2023-06-10T07:33:16;14;14;
47741;PMS5003;33504;52.066;6.096;2023-06-10T07:35:43;12;12;
47741;PMS5003;33504;52.066;6.096;2023-06-10T07:38:11;12;12;
47741;PMS5003;33504;52.066;6.096;2023-06-10T07:40:38;19;19;
47741;PMS5003;33504;52.066;6.096;2023-06-10T07:43:05;17;15;
47741;PMS5003;33504;52.066;6.096;2023-06-10T07:45:33;12;11;
47741;PMS5003;33504;52.066;6.096;2023-06-10T07:48:00;22;21;
47741;PMS5003;33504;52.066;6.096;2023-06-10T07:50:27;14;14;
47741;PMS5003;33504;52.066;6.096;2023-06-10T07:52:54;12;11;
47741;PMS5003;33504;52.066;6.096;2023-06-10T07:55:22;12;12;
47741;PMS5003;33504;52.066;6.096;2023-06-10T07:57:49;13;12;
47741;PMS5003;33504;52.066;6.096;2023-06-10T08:00:17;12;11;
47741;PMS5003;33504;52.066;6.096;2023-06-10T08:02:44;12;11;
47741;PMS5003;33504;52.066;6.096;2023-06-10T08:05:11;19;18;
47741;PMS5003;33504;52.066;6.096;2023-06-10T08:07:38;14;13;
47741;PMS5003;33504;52.066;6.096;2023-06-10T08:10:06;17;16;
47741;PMS5003;33504;52.066;6.096;2023-06-10T08:12:34;18;18;
47741;PMS5003;33504;52.066;6.096;2023-06-10T08:15:02;18;17;
47741;PMS5003;33504;52.066;6.096;2023-06-10T08:17:30;16;15;
47741;PMS5003;33504;52.066;6.096;2023-06-10T08:19:57;11;11;
47741;PMS5003;33504;52.066;6.096;2023-06-10T08:22:24;11;11;
47741;PMS5003;33504;52.066;6.096;2023-06-10T08:24:52;13;12;
47741;PMS5003;33504;52.066;6.096;2023-06-10T08:27:19;18;17;
47741;PMS5003;33504;52.066;6.096;2023-06-10T08:29:46;12;12;
47741;PMS5003;33504;52.066;6.096;2023-06-10T08:32:13;11;10;
47741;PMS5003;33504;52.066;6.096;2023-06-10T08:34:40;14;14;
47741;PMS5003;33504;52.066;6.096;2023-06-10T08:37:08;13;13;
47741;PMS5003;33504;52.066;6.096;2023-06-10T08:39:35;11;9;
47741;PMS5003;33504;52.066;6.096;2023-06-10T08:42:05;13;12;
47741;PMS5003;33504;52.066;6.096;2023-06-10T08:44:37;13;13;
47741;PMS5003;33504;52.066;6.096;2023-06-10T08:47:08;11;10;
47741;PMS5003;33504;52.066;6.096;2023-06-10T08:49:43;9;9;
47741;PMS5003;33504;52.066;6.096;2023-06-10T08:52:14;15;14;
47741;PMS5003;33504;52.066;6.096;2023-06-10T08:54:42;13;12;
47741;PMS5003;33504;52.066;6.096;2023-06-10T08:57:18;13;12;
47741;PMS5003;33504;52.066;6.096;2023-06-10T08:59:46;9;9;
47741;PMS5003;33504;52.066;6.096;2023-06-10T09:02:13;10;10;
47741;PMS5003;33504;52.066;6.096;2023-06-10T09:04:41;10;10;
47741;PMS5003;33504;52.066;6.096;2023-06-10T09:07:09;11;11;
47741;PMS5003;33504;52.066;6.096;2023-06-10T09:09:36;10;10;
47741;PMS5003;33504;52.066;6.096;2023-06-10T09:12:04;9;9;
47741;PMS5003;33504;52.066;6.096;2023-06-10T09:14:31;9;9;
47741;PMS5003;33504;52.066;6.096;2023-06-10T09:16:59;11;10;
47741;PMS5003;33504;52.066;6.096;2023-06-10T09:19:26;10;10;
47741;PMS5003;33504;52.066;6.096;2023-06-10T09:21:54;11;10;
47741;PMS5003;33504;52.066;6.096;2023-06-10T09:24:22;10;10;
47741;PMS5003;33504;52.066;6.096;2023-06-10T09:26:49;11;11;
47741;PMS5003;33504;52.066;6.096;2023-06-10T09:29:16;12;12;
47741;PMS5003;33504;52.066;6.096;2023-06-10T09:31:43;13;11;
47741;PMS5003;33504;52.066;6.096;2023-06-10T09:34:12;9;9;
47741;PMS5003;33504;52.066;6.096;2023-06-10T09:36:41;10;10;
47741;PMS5003;33504;52.066;6.096;2023-06-10T09:39:14;11;10;
47741;PMS5003;33504;52.066;6.096;2023-06-10T09:41:51;12;12;
47741;PMS5003;33504;52.066;6.096;2023-06-10T09:44:19;10;10;
47741;PMS5003;33504;52.066;6.096;2023-06-10T09:46:48;10;10;
47741;PMS5003;33504;52.066;6.096;2023-06-10T09:49:16;11;11;
47741;PMS5003;33504;52.066;6.096;2023-06-10T09:51:50;10;10;
47741;PMS5003;33504;52.066;6.096;2023-06-10T09:54:18;12;12;
47741;PMS5003;33504;52.066;6.096;2023-06-10T09:56:46;12;12;
47741;PMS5003;33504;52.066;6.096;2023-06-10T09:59:14;12;12;
47741;PMS5003;33504;52.066;6.096;2023-06-10T10:01:42;9;8;
47741;PMS5003;33504;52.066;6.096;2023-06-10T10:04:09;10;10;
47741;PMS5003;33504;52.066;6.096;2023-06-10T10:06:36;10;10;
47741;PMS5003;33504;52.066;6.096;2023-06-10T10:09:04;9;9;
47741;PMS5003;33504;52.066;6.096;2023-06-10T10:11:33;8;8;
47741;PMS5003;33504;52.066;6.096;2023-06-10T10:14:05;9;9;
47741;PMS5003;33504;52.066;6.096;2023-06-10T10:16:35;9;8;
47741;PMS5003;33504;52.066;6.096;2023-06-10T10:19:04;9;9;
47741;PMS5003;33504;52.066;6.096;2023-06-10T10:21:35;10;10;
47741;PMS5003;33504;52.066;6.096;2023-06-10T10:24:09;11;10;
47741;PMS5003;33504;52.066;6.096;2023-06-10T10:26:42;8;8;
47741;PMS5003;33504;52.066;6.096;2023-06-10T10:29:14;10;9;
47741;PMS5003;33504;52.066;6.096;2023-06-10T10:31:46;10;9;
47741;PMS5003;33504;52.066;6.096;2023-06-10T10:34:19;8;8;
47741;PMS5003;33504;52.066;6.096;2023-06-10T10:36:51;10;10;
47741;PMS5003;33504;52.066;6.096;2023-06-10T10:39:18;10;10;
47741;PMS5003;33504;52.066;6.096;2023-06-10T10:41:46;8;8;
47741;PMS5003;33504;52.066;6.096;2023-06-10T10:44:14;11;11;
47741;PMS5003;33504;52.066;6.096;2023-06-10T10:46:43;11;10;
47741;PMS5003;33504;52.066;6.096;2023-06-10T10:49:12;10;10;
47741;PMS5003;33504;52.066;6.096;2023-06-10T10:51:54;11;10;
47741;PMS5003;33504;52.066;6.096;2023-06-10T10:54:27;11;10;
47741;PMS5003;33504;52.066;6.096;2023-06-10T10:57:28;10;9;
47741;PMS5003;33504;52.066;6.096;2023-06-10T10:59:56;9;8;
47741;PMS5003;33504;52.066;6.096;2023-06-10T11:02:58;8;8;
47741;PMS5003;33504;52.066;6.096;2023-06-10T11:05:43;10;10;
47741;PMS5003;33504;52.066;6.096;2023-06-10T11:08:11;9;9;
47741;PMS5003;33504;52.066;6.096;2023-06-10T11:10:39;8;7;
47741;PMS5003;33504;52.066;6.096;2023-06-10T11:13:07;11;11;
47741;PMS5003;33504;52.066;6.096;2023-06-10T11:15:38;10;9;
47741;PMS5003;33504;52.066;6.096;2023-06-10T11:18:07;8;8;
47741;PMS5003;33504;52.066;6.096;2023-06-10T11:20:44;8;8;
47741;PMS5003;33504;52.066;6.096;2023-06-10T11:23:25;10;9;
47741;PMS5003;33504;52.066;6.096;2023-06-10T11:26:09;9;9;
47741;PMS5003;33504;52.066;6.096;2023-06-10T11:28:36;9;9;
47741;PMS5003;33504;52.066;6.096;2023-06-10T11:31:04;11;11;
47741;PMS5003;33504;52.066;6.096;2023-06-10T11:33:31;10;10;
47741;PMS5003;33504;52.066;6.096;2023-06-10T11:35:58;8;8;
47741;PMS5003;33504;52.066;6.096;2023-06-10T11:38:25;12;12;
47741;PMS5003;33504;52.066;6.096;2023-06-10T11:40:55;10;10;
47741;PMS5003;33504;52.066;6.096;2023-06-10T11:43:22;12;12;
47741;PMS5003;33504;52.066;6.096;2023-06-10T11:45:53;11;10;
47741;PMS5003;33504;52.066;6.096;2023-06-10T11:48:20;11;10;
47741;PMS5003;33504;52.066;6.096;2023-06-10T11:50:53;10;10;
47741;PMS5003;33504;52.066;6.096;2023-06-10T11:53:20;10;10;
47741;PMS5003;33504;52.066;6.096;2023-06-10T11:55:49;10;10;
47741;PMS5003;33504;52.066;6.096;2023-06-10T11:58:17;10;10;
47741;PMS5003;33504;52.066;6.096;2023-06-10T12:00:46;10;9;
47741;PMS5003;33504;52.066;6.096;2023-06-10T12:03:15;9;9;
47741;PMS5003;33504;52.066;6.096;2023-06-10T12:05:53;10;9;
47741;PMS5003;33504;52.066;6.096;2023-06-10T12:08:22;11;11;
47741;PMS5003;33504;52.066;6.096;2023-06-10T12:10:49;10;10;
47741;PMS5003;33504;52.066;6.096;2023-06-10T12:13:17;13;11;
47741;PMS5003;33504;52.066;6.096;2023-06-10T12:15:44;11;11;
47741;PMS5003;33504;52.066;6.096;2023-06-10T12:18:15;12;11;
47741;PMS5003;33504;52.066;6.096;2023-06-10T12:20:43;12;11;
47741;PMS5003;33504;52.066;6.096;2023-06-10T12:23:10;13;12;
47741;PMS5003;33504;52.066;6.096;2023-06-10T12:25:37;10;10;
47741;PMS5003;33504;52.066;6.096;2023-06-10T12:28:05;12;11;
47741;PMS5003;33504;52.066;6.096;2023-06-10T12:30:36;10;10;
47741;PMS5003;33504;52.066;6.096;2023-06-10T12:33:03;11;11;
47741;PMS5003;33504;52.066;6.096;2023-06-10T12:35:30;12;12;
47741;PMS5003;33504;52.066;6.096;2023-06-10T12:37:58;10;10;
47741;PMS5003;33504;52.066;6.096;2023-06-10T12:40:27;9;9;
47741;PMS5003;33504;52.066;6.096;2023-06-10T12:42:55;11;11;
47741;PMS5003;33504;52.066;6.096;2023-06-10T12:45:30;13;12;
47741;PMS5003;33504;52.066;6.096;2023-06-10T12:48:06;9;9;
47741;PMS5003;33504;52.066;6.096;2023-06-10T12:50:35;11;11;
47741;PMS5003;33504;52.066;6.096;2023-06-10T12:53:02;12;12;
47741;PMS5003;33504;52.066;6.096;2023-06-10T12:55:29;10;10;
47741;PMS5003;33504;52.066;6.096;2023-06-10T12:57:56;11;11;
47741;PMS5003;33504;52.066;6.096;2023-06-10T13:00:23;12;11;
47741;PMS5003;33504;52.066;6.096;2023-06-10T13:02:51;12;11;
47741;PMS5003;33504;52.066;6.096;2023-06-10T13:05:18;13;13;
47741;PMS5003;33504;52.066;6.096;2023-06-10T13:07:46;13;12;
47741;PMS5003;33504;52.066;6.096;2023-06-10T13:10:14;12;12;
47741;PMS5003;33504;52.066;6.096;2023-06-10T13:12:43;12;12;
47741;PMS5003;33504;52.066;6.096;2023-06-10T13:15:10;11;11;
47741;PMS5003;33504;52.066;6.096;2023-06-10T13:17:37;13;13;
47741;PMS5003;33504;52.066;6.096;2023-06-10T13:20:06;14;14;
47741;PMS5003;33504;52.066;6.096;2023-06-10T13:22:34;13;12;
47741;PMS5003;33504;52.066;6.096;2023-06-10T13:25:02;11;10;
47741;PMS5003;33504;52.066;6.096;2023-06-10T13:27:30;14;13;
47741;PMS5003;33504;52.066;6.096;2023-06-10T13:29:57;10;10;
47741;PMS5003;33504;52.066;6.096;2023-06-10T13:32:24;11;11;
47741;PMS5003;33504;52.066;6.096;2023-06-10T13:34:51;12;12;
47741;PMS5003;33504;52.066;6.096;2023-06-10T13:37:18;13;12;
47741;PMS5003;33504;52.066;6.096;2023-06-10T13:39:46;10;9;
47741;PMS5003;33504;52.066;6.096;2023-06-10T13:42:12;11;11;
47741;PMS5003;33504;52.066;6.096;2023-06-10T13:44:39;14;14;
47741;PMS5003;33504;52.066;6.096;2023-06-10T13:47:07;11;10;
47741;PMS5003;33504;52.066;6.096;2023-06-10T13:49:34;15;14;
47741;PMS5003;33504;52.066;6.096;2023-06-10T13:52:01;12;12;
47741;PMS5003;33504;52.066;6.096;2023-06-10T13:54:28;13;13;
47741;PMS5003;33504;52.066;6.096;2023-06-10T13:56:56;13;12;
47741;PMS5003;33504;52.066;6.096;2023-06-10T13:59:23;13;13;
47741;PMS5003;33504;52.066;6.096;2023-06-10T14:01:50;14;14;
47741;PMS5003;33504;52.066;6.096;2023-06-10T14:04:17;13;12;
47741;PMS5003;33504;52.066;6.096;2023-06-10T14:06:44;13;13;
47741;PMS5003;33504;52.066;6.096;2023-06-10T14:09:12;13;13;
47741;PMS5003;33504;52.066;6.096;2023-06-10T14:11:40;12;12;
47741;PMS5003;33504;52.066;6.096;2023-06-10T14:14:07;17;16;
47741;PMS5003;33504;52.066;6.096;2023-06-10T14:16:34;15;15;
47741;PMS5003;33504;52.066;6.096;2023-06-10T14:19:01;12;12;
47741;PMS5003;33504;52.066;6.096;2023-06-10T14:21:29;14;14;
47741;PMS5003;33504;52.066;6.096;2023-06-10T14:23:57;13;13;
47741;PMS5003;33504;52.066;6.096;2023-06-10T14:26:24;11;11;
47741;PMS5003;33504;52.066;6.096;2023-06-10T14:28:51;14;14;
47741;PMS5003;33504;52.066;6.096;2023-06-10T14:31:18;12;11;
47741;PMS5003;33504;52.066;6.096;2023-06-10T14:33:46;13;13;
47741;PMS5003;33504;52.066;6.096;2023-06-10T14:36:13;16;14;
47741;PMS5003;33504;52.066;6.096;2023-06-10T14:38:40;13;13;
47741;PMS5003;33504;52.066;6.096;2023-06-10T14:41:08;14;13;
47741;PMS5003;33504;52.066;6.096;2023-06-10T14:43:35;13;13;
47741;PMS5003;33504;52.066;6.096;2023-06-10T14:46:02;15;15;
47741;PMS5003;33504;52.066;6.096;2023-06-10T14:48:29;13;13;
47741;PMS5003;33504;52.066;6.096;2023-06-10T14:50:57;13;13;
47741;PMS5003;33504;52.066;6.096;2023-06-10T14:53:24;12;12;
47741;PMS5003;33504;52.066;6.096;2023-06-10T14:55:51;15;15;
47741;PMS5003;33504;52.066;6.096;2023-06-10T14:58:18;12;11;
47741;PMS5003;33504;52.066;6.096;2023-06-10T15:00:46;15;15;
47741;PMS5003;33504;52.066;6.096;2023-06-10T15:03:13;14;14;
47741;PMS5003;33504;52.066;6.096;2023-06-10T15:05:40;12;12;
47741;PMS5003;33504;52.066;6.096;2023-06-10T15:08:07;12;12;
47741;PMS5003;33504;52.066;6.096;2023-06-10T15:10:35;14;13;
47741;PMS5003;33504;52.066;6.096;2023-06-10T15:13:02;14;14;
47741;PMS5003;33504;52.066;6.096;2023-06-10T15:15:29;13;13;
47741;PMS5003;33504;52.066;6.096;2023-06-10T15:17:56;15;14;
47741;PMS5003;33504;52.066;6.096;2023-06-10T15:20:24;13;13;
47741;PMS5003;33504;52.066;6.096;2023-06-10T15:22:51;13;13;
47741;PMS5003;33504;52.066;6.096;2023-06-10T15:25:18;14;14;
47741;PMS5003;33504;52.066;6.096;2023-06-10T15:27:45;15;15;
47741;PMS5003;33504;52.066;6.096;2023-06-10T15:30:13;12;12;
47741;PMS5003;33504;52.066;6.096;2023-06-10T15:32:40;13;13;
47741;PMS5003;33504;52.066;6.096;2023-06-10T15:35:08;13;13;
47741;PMS5003;33504;52.066;6.096;2023-06-10T15:37:34;15;13;
47741;PMS5003;33504;52.066;6.096;2023-06-10T15:40:02;13;13;
47741;PMS5003;33504;52.066;6.096;2023-06-10T15:42:29;14;14;
47741;PMS5003;33504;52.066;6.096;2023-06-10T15:44:56;13;13;
47741;PMS5003;33504;52.066;6.096;2023-06-10T15:47:23;13;13;
47741;PMS5003;33504;52.066;6.096;2023-06-10T15:49:51;14;14;
47741;PMS5003;33504;52.066;6.096;2023-06-10T15:52:18;14;14;
47741;PMS5003;33504;52.066;6.096;2023-06-10T15:54:45;14;12;
47741;PMS5003;33504;52.066;6.096;2023-06-10T15:57:12;15;13;
47741;PMS5003;33504;52.066;6.096;2023-06-10T15:59:39;12;11;
47741;PMS5003;33504;52.066;6.096;2023-06-10T16:02:07;14;14;
47741;PMS5003;33504;52.066;6.096;2023-06-10T16:04:35;14;14;
47741;PMS5003;33504;52.066;6.096;2023-06-10T16:07:03;12;12;
47741;PMS5003;33504;52.066;6.096;2023-06-10T16:09:35;13;13;
47741;PMS5003;33504;52.066;6.096;2023-06-10T16:12:02;13;13;
47741;PMS5003;33504;52.066;6.096;2023-06-10T16:14:30;15;15;
47741;PMS5003;33504;52.066;6.096;2023-06-10T16:16:57;13;12;
47741;PMS5003;33504;52.066;6.096;2023-06-10T16:19:25;13;13;
47741;PMS5003;33504;52.066;6.096;2023-06-10T16:21:52;16;15;
47741;PMS5003;33504;52.066;6.096;2023-06-10T16:24:19;15;15;
47741;PMS5003;33504;52.066;6.096;2023-06-10T16:26:47;15;15;